createdAt,value
2023-05-10T00:02:11.509Z,12.59
2023-05-10T00:04:37.826Z,12.54
2023-05-10T00:07:04.081Z,12.52
2023-05-10T00:09:30.339Z,12.42
2023-05-10T00:11:56.578Z,12.45
2023-05-10T00:14:22.862Z,12.42
2023-05-10T00:16:49.255Z,12.38
2023-05-10T00:19:16.183Z,12.32
2023-05-10T00:21:42.562Z,12.27
2023-05-10T00:24:08.824Z,12.19
2023-05-10T00:26:35.127Z,12.21
2023-05-10T00:29:01.414Z,12.21
2023-05-10T00:31:27.777Z,12.23
2023-05-10T00:33:54.091Z,12.28
2023-05-10T00:36:20.372Z,12.26
2023-05-10T00:38:46.645Z,12.32
2023-05-10T00:41:12.890Z,12.21
2023-05-10T00:43:39.157Z,12.22
2023-05-10T00:46:05.510Z,12.11
2023-05-10T00:48:31.810Z,12.11
2023-05-10T00:50:58.054Z,12.02
2023-05-10T00:53:24.317Z,12.06
2023-05-10T00:55:50.572Z,12.07
2023-05-10T00:58:16.821Z,12.06
2023-05-10T01:00:43.121Z,12.09
2023-05-10T01:03:09.442Z,12.10
2023-05-10T01:05:35.753Z,12.17
2023-05-10T01:08:02.053Z,12.21
2023-05-10T01:10:28.301Z,12.28
2023-05-10T01:12:54.579Z,12.31
2023-05-10T01:15:20.836Z,12.15
2023-05-10T01:17:47.213Z,12.14
2023-05-10T01:20:13.571Z,12.20
2023-05-10T01:22:39.976Z,12.21
2023-05-10T01:25:06.297Z,12.16
2023-05-10T01:27:32.580Z,12.16
2023-05-10T01:30:14.187Z,12.15
2023-05-10T01:32:41.567Z,12.09
2023-05-10T01:35:07.870Z,12.09
2023-05-10T01:37:34.142Z,12.08
2023-05-10T01:40:00.435Z,12.09
2023-05-10T01:42:26.697Z,12.13
2023-05-10T01:44:52.957Z,12.07
2023-05-10T01:47:19.215Z,12.02
2023-05-10T01:49:45.448Z,12.02
2023-05-10T01:52:11.697Z,11.92
2023-05-10T01:54:37.963Z,11.95
2023-05-10T01:57:04.241Z,11.91
2023-05-10T01:59:30.514Z,12.00
2023-05-10T02:01:56.769Z,11.67
2023-05-10T02:04:23.021Z,11.85
2023-05-10T02:06:49.385Z,11.83
2023-05-10T02:09:15.637Z,11.88
2023-05-10T02:11:41.874Z,11.92
2023-05-10T02:14:08.112Z,11.96
2023-05-10T02:16:34.393Z,12.07
2023-05-10T02:19:00.679Z,12.09
2023-05-10T02:21:26.915Z,12.13
2023-05-10T02:23:53.188Z,12.11
2023-05-10T02:26:19.444Z,12.04
2023-05-10T02:28:45.695Z,12.00
2023-05-10T02:31:11.944Z,11.89
2023-05-10T02:33:38.200Z,11.84
2023-05-10T02:36:04.450Z,11.87
2023-05-10T02:38:30.685Z,11.90
2023-05-10T02:40:56.941Z,11.82
2023-05-10T02:43:23.211Z,11.86
2023-05-10T02:45:49.535Z,11.76
2023-05-10T02:48:15.838Z,11.78
2023-05-10T02:50:42.128Z,11.74
2023-05-10T02:53:08.412Z,11.67
2023-05-10T02:55:34.676Z,11.60
2023-05-10T02:58:00.959Z,11.48
2023-05-10T03:00:27.224Z,11.38
2023-05-10T03:02:53.571Z,11.40
2023-05-10T03:05:19.842Z,11.29
2023-05-10T03:07:46.099Z,11.27
2023-05-10T03:10:12.358Z,11.34
2023-05-10T03:12:38.603Z,11.40
2023-05-10T03:15:04.854Z,11.48
2023-05-10T03:17:31.195Z,11.52
2023-05-10T03:19:57.463Z,11.58
2023-05-10T03:22:23.712Z,11.58
2023-05-10T03:24:49.958Z,11.60
2023-05-10T03:27:16.229Z,11.59
2023-05-10T03:29:42.472Z,11.64
2023-05-10T03:32:08.736Z,11.60
2023-05-10T03:34:35.014Z,11.65
2023-05-10T03:37:01.275Z,11.62
2023-05-10T03:39:27.540Z,11.63
2023-05-10T03:41:53.777Z,11.57
2023-05-10T03:44:20.102Z,11.63
2023-05-10T03:46:46.417Z,11.64
2023-05-10T03:49:12.704Z,11.63
2023-05-10T03:51:39.104Z,11.52
2023-05-10T03:54:05.349Z,11.41
2023-05-10T03:56:31.632Z,11.30
2023-05-10T03:58:57.896Z,11.26
2023-05-10T04:01:24.156Z,11.20
2023-05-10T04:03:50.513Z,11.28
2023-05-10T04:06:16.802Z,11.17
2023-05-10T04:08:43.087Z,11.17
2023-05-10T04:11:09.350Z,11.16
2023-05-10T04:13:35.614Z,11.19
2023-05-10T04:16:01.862Z,11.13
2023-05-10T04:18:28.120Z,11.01
2023-05-10T04:20:54.370Z,11.02
2023-05-10T04:23:20.755Z,11.07
2023-05-10T04:25:47.014Z,11.05
2023-05-10T04:28:13.325Z,10.97
2023-05-10T04:30:39.615Z,11.04
2023-05-10T04:33:05.968Z,11.09
2023-05-10T04:35:32.231Z,11.09
2023-05-10T04:37:58.502Z,11.08
2023-05-10T04:40:24.784Z,11.12
2023-05-10T04:42:51.050Z,11.21
2023-05-10T04:45:17.458Z,11.26
2023-05-10T04:47:43.779Z,11.30
2023-05-10T04:50:10.096Z,11.34
2023-05-10T04:52:36.388Z,11.36
2023-05-10T04:55:02.680Z,11.41
2023-05-10T04:57:28.965Z,11.37
2023-05-10T04:59:55.212Z,11.48
2023-05-10T05:02:21.543Z,11.42
2023-05-10T05:04:47.790Z,11.44
2023-05-10T05:07:14.053Z,11.48
2023-05-10T05:09:40.360Z,11.51
2023-05-10T05:12:06.628Z,11.55
2023-05-10T05:14:32.952Z,11.59
2023-05-10T05:16:59.209Z,11.57
2023-05-10T05:19:25.455Z,11.60
2023-05-10T05:21:51.711Z,11.62
2023-05-10T05:24:17.959Z,11.60
2023-05-10T05:26:44.233Z,11.62
2023-05-10T05:29:10.527Z,11.65
2023-05-10T05:31:36.830Z,11.66
2023-05-10T05:34:03.154Z,11.64
2023-05-10T05:36:29.408Z,11.67
2023-05-10T05:38:55.686Z,11.75
2023-05-10T05:41:21.937Z,11.78
2023-05-10T05:43:48.180Z,11.69
2023-05-10T05:46:14.452Z,11.75
2023-05-10T05:48:40.738Z,11.74
2023-05-10T05:51:07.421Z,11.72
2023-05-10T05:53:33.837Z,11.64
2023-05-10T05:56:00.128Z,11.69
2023-05-10T05:58:26.420Z,11.75
2023-05-10T06:00:52.689Z,11.76
2023-05-10T06:03:19.045Z,11.72
2023-05-10T06:05:45.359Z,11.81
2023-05-10T06:08:11.616Z,11.84
2023-05-10T06:10:37.925Z,11.89
2023-05-10T06:13:04.254Z,11.96
2023-05-10T06:15:30.572Z,12.03
2023-05-10T06:17:56.876Z,12.08
2023-05-10T06:20:23.170Z,12.04
2023-05-10T06:22:49.481Z,12.08
2023-05-10T06:25:16.012Z,12.18
2023-05-10T06:27:42.510Z,12.18
2023-05-10T06:30:12.852Z,12.19
2023-05-10T06:32:39.832Z,12.24
2023-05-10T06:35:06.083Z,12.15
2023-05-10T06:37:32.329Z,12.21
2023-05-10T06:39:58.588Z,12.15
2023-05-10T06:42:24.857Z,12.14
2023-05-10T06:44:51.113Z,12.13
2023-05-10T06:47:17.390Z,12.09
2023-05-10T06:49:43.660Z,12.09
2023-05-10T06:52:09.930Z,12.04
2023-05-10T06:54:36.210Z,12.13
2023-05-10T06:57:03.954Z,12.17
2023-05-10T06:59:31.159Z,12.20
2023-05-10T07:01:57.509Z,12.22
2023-05-10T07:04:23.825Z,12.26
2023-05-10T07:06:50.105Z,12.27
2023-05-10T07:09:16.369Z,12.22
2023-05-10T07:11:42.630Z,12.25
2023-05-10T07:14:08.887Z,12.23
2023-05-10T07:16:35.192Z,12.29
2023-05-10T07:19:01.491Z,12.24
2023-05-10T07:21:27.803Z,12.31
2023-05-10T07:23:54.125Z,12.40
2023-05-10T07:26:20.422Z,12.47
2023-05-10T07:28:46.689Z,12.53
2023-05-10T07:31:12.951Z,12.54
2023-05-10T07:33:39.225Z,12.53
2023-05-10T07:36:05.476Z,12.56
2023-05-10T07:38:31.745Z,12.44
2023-05-10T07:40:58.008Z,12.48
2023-05-10T07:43:24.258Z,12.40
2023-05-10T07:45:50.543Z,12.38
2023-05-10T07:48:16.835Z,12.38
2023-05-10T07:50:43.102Z,12.41
2023-05-10T07:53:09.379Z,12.34
2023-05-10T07:55:36.097Z,12.36
2023-05-10T07:58:02.394Z,12.29
2023-05-10T08:00:28.697Z,12.37
2023-05-10T08:02:55.047Z,12.39
2023-05-10T08:05:21.375Z,12.40
2023-05-10T08:07:47.629Z,12.31
2023-05-10T08:10:13.910Z,12.39
2023-05-10T08:12:40.175Z,12.32
2023-05-10T08:15:06.457Z,12.39
2023-05-10T08:17:32.798Z,12.28
2023-05-10T08:19:59.097Z,12.42
2023-05-10T08:22:25.357Z,12.33
2023-05-10T08:24:51.600Z,12.37
2023-05-10T08:27:17.881Z,12.40
2023-05-10T08:29:49.997Z,12.32
2023-05-10T08:32:16.561Z,12.28
2023-05-10T08:34:42.800Z,12.25
2023-05-10T08:37:09.106Z,12.27
2023-05-10T08:39:35.424Z,12.12
2023-05-10T08:42:01.701Z,12.15
2023-05-10T08:44:28.000Z,12.24
2023-05-10T08:46:54.310Z,12.19
2023-05-10T08:49:20.614Z,12.13
2023-05-10T08:51:46.885Z,12.19
2023-05-10T08:54:13.141Z,12.18
2023-05-10T08:56:39.443Z,12.33
2023-05-10T08:59:05.774Z,12.32
2023-05-10T09:01:32.126Z,12.36
2023-05-10T09:03:58.488Z,12.44
2023-05-10T09:06:24.809Z,12.54
2023-05-10T09:08:51.065Z,12.66
2023-05-10T09:11:17.729Z,12.79
2023-05-10T09:13:44.114Z,12.86
2023-05-10T09:16:21.199Z,12.89
2023-05-10T09:18:49.018Z,12.95
2023-05-10T09:21:15.313Z,12.94
2023-05-10T09:23:41.616Z,12.91
2023-05-10T09:26:08.025Z,13.04
2023-05-10T09:28:34.638Z,13.14
2023-05-10T09:31:00.923Z,13.12
2023-05-10T09:33:27.225Z,13.19
2023-05-10T09:35:53.696Z,13.18
2023-05-10T09:38:21.916Z,13.19
2023-05-10T09:40:48.186Z,13.08
2023-05-10T09:43:14.445Z,13.10
2023-05-10T09:45:40.824Z,13.24
2023-05-10T09:48:07.549Z,13.21
2023-05-10T09:50:34.048Z,13.25
2023-05-10T09:53:00.321Z,13.15
2023-05-10T09:55:26.589Z,13.28
2023-05-10T09:57:52.857Z,13.38
2023-05-10T10:00:19.114Z,13.43
2023-05-10T10:02:45.425Z,13.46
2023-05-10T10:05:11.974Z,13.49
2023-05-10T10:07:38.779Z,13.54
2023-05-10T10:10:05.282Z,13.61
2023-05-10T10:12:32.206Z,13.65
2023-05-10T10:14:59.109Z,13.72
2023-05-10T10:17:30.532Z,13.69
2023-05-10T10:19:56.914Z,13.70
2023-05-10T10:22:23.177Z,13.76
2023-05-10T10:24:49.445Z,13.78
2023-05-10T10:27:20.965Z,13.86
2023-05-10T10:29:47.777Z,13.94
2023-05-10T10:32:14.051Z,13.97
2023-05-10T10:34:40.935Z,14.00
2023-05-10T10:37:07.277Z,14.02
2023-05-10T10:39:33.625Z,13.92
2023-05-10T10:41:59.903Z,14.08
2023-05-10T10:44:26.195Z,14.18
2023-05-10T10:46:52.513Z,14.22
2023-05-10T10:49:18.817Z,14.30
2023-05-10T10:51:45.496Z,14.30
2023-05-10T10:54:12.085Z,14.08
2023-05-10T10:56:39.070Z,14.11
2023-05-10T10:59:08.178Z,14.16
2023-05-10T11:01:34.922Z,14.09
2023-05-10T11:04:02.484Z,14.06
2023-05-10T11:06:28.801Z,14.14
2023-05-10T11:08:55.099Z,13.99
2023-05-10T11:11:24.097Z,14.19
2023-05-10T11:13:51.452Z,14.28
2023-05-10T11:16:19.318Z,14.37
2023-05-10T11:18:47.069Z,14.28
2023-05-10T11:21:15.131Z,14.35
2023-05-10T11:23:41.437Z,14.42
2023-05-10T11:26:07.676Z,14.43
2023-05-10T11:28:33.917Z,14.32
2023-05-10T11:31:00.285Z,14.24
2023-05-10T11:33:26.597Z,14.18
2023-05-10T11:35:55.634Z,13.88
2023-05-10T11:38:22.069Z,14.01
2023-05-10T11:40:48.350Z,13.92
2023-05-10T11:43:14.754Z,14.12
2023-05-10T11:45:41.210Z,14.17
2023-05-10T11:48:07.520Z,14.27
2023-05-10T11:50:34.179Z,14.42
2023-05-10T11:53:00.948Z,14.43
2023-05-10T11:55:27.261Z,14.36
2023-05-10T11:57:53.556Z,14.42
2023-05-10T12:00:22.049Z,14.50
2023-05-10T12:02:48.402Z,14.51
2023-05-10T12:05:15.198Z,14.26
2023-05-10T12:07:41.477Z,14.44
2023-05-10T12:10:07.875Z,14.49
2023-05-10T12:12:34.190Z,14.64
2023-05-10T12:15:00.513Z,14.58
2023-05-10T12:17:26.820Z,14.71
2023-05-10T12:19:53.110Z,14.78
2023-05-10T12:22:19.361Z,14.94
2023-05-10T12:24:45.612Z,14.91
2023-05-10T12:27:11.879Z,14.94
2023-05-10T12:29:38.154Z,15.07
2023-05-10T12:32:04.524Z,15.19
2023-05-10T12:34:30.953Z,15.33
2023-05-10T12:36:57.459Z,15.38
2023-05-10T12:39:23.742Z,15.45
2023-05-10T12:41:50.012Z,15.44
2023-05-10T12:44:16.282Z,15.40
2023-05-10T12:46:42.526Z,15.43
2023-05-10T12:49:09.774Z,15.17
2023-05-10T12:51:36.315Z,15.27
2023-05-10T12:54:02.582Z,15.15
2023-05-10T12:56:28.839Z,15.39
2023-05-10T12:58:55.123Z,15.43
2023-05-10T13:01:21.509Z,15.48
2023-05-10T13:03:47.812Z,15.63
2023-05-10T13:06:14.096Z,15.45
2023-05-10T13:08:40.333Z,15.42
2023-05-10T13:11:06.626Z,15.41
2023-05-10T13:13:32.904Z,15.50
2023-05-10T13:15:59.215Z,15.52
2023-05-10T13:18:25.652Z,15.62
2023-05-10T13:20:52.051Z,15.72
2023-05-10T13:23:18.308Z,15.40
2023-05-10T13:25:44.606Z,15.51
2023-05-10T13:28:10.860Z,15.42
2023-05-10T13:30:37.150Z,15.33
2023-05-10T13:33:03.485Z,15.18
2023-05-10T13:35:29.837Z,15.24
2023-05-10T13:37:56.126Z,15.19
2023-05-10T13:40:22.417Z,15.39
2023-05-10T13:42:48.824Z,15.44
2023-05-10T13:45:15.353Z,15.47
2023-05-10T13:47:42.023Z,15.53
2023-05-10T13:50:08.519Z,15.39
2023-05-10T13:52:34.948Z,15.44
2023-05-10T13:55:01.257Z,15.50
2023-05-10T13:57:27.504Z,15.51
2023-05-10T13:59:55.301Z,15.29
2023-05-10T14:02:22.144Z,15.34
2023-05-10T14:04:48.417Z,15.31
2023-05-10T14:07:14.648Z,15.17
2023-05-10T14:09:40.898Z,15.09
2023-05-10T14:12:07.179Z,15.04
2023-05-10T14:14:33.702Z,14.96
2023-05-10T14:17:00.011Z,14.88
2023-05-10T14:19:26.303Z,14.90
2023-05-10T14:21:52.581Z,14.69
2023-05-10T14:24:18.837Z,14.65
2023-05-10T14:26:45.163Z,14.39
2023-05-10T14:29:12.702Z,14.49
2023-05-10T14:31:39.125Z,14.54
2023-05-10T14:34:05.519Z,14.46
2023-05-10T14:36:31.769Z,14.19
2023-05-10T14:38:58.052Z,14.47
2023-05-10T14:41:24.343Z,14.71
2023-05-10T14:43:50.631Z,14.50
2023-05-10T14:46:16.998Z,14.53
2023-05-10T14:48:43.370Z,14.69
2023-05-10T14:51:09.653Z,14.58
2023-05-10T14:53:35.945Z,14.65
2023-05-10T14:56:02.234Z,14.57
2023-05-10T14:58:28.521Z,14.75
2023-05-10T15:00:54.792Z,14.66
2023-05-10T15:03:21.456Z,14.65
2023-05-10T15:05:48.343Z,14.67
2023-05-10T15:08:14.700Z,14.75
2023-05-10T15:10:40.979Z,14.61
2023-05-10T15:13:07.279Z,14.52
2023-05-10T15:15:33.666Z,14.66
2023-05-10T15:18:00.058Z,14.91
2023-05-10T15:20:26.428Z,14.93
2023-05-10T15:22:52.688Z,15.05
2023-05-10T15:25:19.245Z,14.97
2023-05-10T15:27:45.675Z,15.05
2023-05-10T15:30:11.971Z,15.10
2023-05-10T15:32:38.326Z,15.05
2023-05-10T15:35:04.569Z,15.00
2023-05-10T15:37:30.836Z,14.79
2023-05-10T15:39:57.587Z,14.79
2023-05-10T15:42:23.860Z,14.79
2023-05-10T15:44:50.133Z,14.74
2023-05-10T15:47:16.378Z,14.69
2023-05-10T15:49:42.698Z,14.61
2023-05-10T15:52:09.071Z,14.49
2023-05-10T15:54:35.341Z,14.51
2023-05-10T15:57:01.626Z,14.42
2023-05-10T15:59:27.875Z,14.28
2023-05-10T16:01:54.151Z,14.28
2023-05-10T16:04:20.419Z,14.22
2023-05-10T16:06:46.728Z,14.16
2023-05-10T16:09:13.030Z,14.20
2023-05-10T16:11:39.308Z,14.09
2023-05-10T16:14:07.134Z,14.08
2023-05-10T16:16:33.713Z,13.83
2023-05-10T16:19:00.084Z,13.99
2023-05-10T16:21:26.371Z,13.95
2023-05-10T16:23:52.618Z,13.87
2023-05-10T16:26:18.881Z,13.84
2023-05-10T16:28:45.124Z,13.87
2023-05-10T16:31:11.486Z,13.88
2023-05-10T16:33:37.761Z,13.88
2023-05-10T16:36:04.032Z,13.72
2023-05-10T16:38:30.289Z,13.82
2023-05-10T16:40:56.580Z,13.89
2023-05-10T16:43:24.640Z,13.74
2023-05-10T16:45:52.332Z,13.66
2023-05-10T16:48:18.605Z,13.77
2023-05-10T16:50:44.877Z,13.78
2023-05-10T16:53:11.153Z,13.85
2023-05-10T16:55:37.432Z,13.92
2023-05-10T16:58:03.696Z,13.86
2023-05-10T17:00:29.978Z,13.74
2023-05-10T17:02:56.309Z,13.78
2023-05-10T17:05:22.667Z,13.87
2023-05-10T17:07:48.930Z,13.96
2023-05-10T17:10:17.420Z,13.98
2023-05-10T17:12:43.686Z,14.06
2023-05-10T17:15:10.137Z,14.13
2023-05-10T17:17:36.834Z,14.33
2023-05-10T17:20:06.126Z,14.49
2023-05-10T17:22:32.600Z,15.06
2023-05-10T17:24:58.896Z,14.90
2023-05-10T17:27:25.173Z,14.80
2023-05-10T17:29:51.433Z,14.97
2023-05-10T17:32:17.792Z,15.09
2023-05-10T17:34:44.058Z,15.01
2023-05-10T17:37:10.859Z,15.80
2023-05-10T17:39:39.350Z,16.22
2023-05-10T17:42:06.231Z,16.23
2023-05-10T17:44:32.534Z,16.09
2023-05-10T17:46:58.810Z,15.77
2023-05-10T17:49:25.133Z,15.74
2023-05-10T17:51:51.913Z,15.37
2023-05-10T17:54:18.691Z,15.29
2023-05-10T17:56:45.113Z,14.89
2023-05-10T17:59:11.583Z,14.64
2023-05-10T18:01:38.105Z,14.61
2023-05-10T18:04:04.418Z,14.57
2023-05-10T18:06:30.693Z,14.31
2023-05-10T18:08:56.972Z,14.37
2023-05-10T18:11:23.240Z,14.26
2023-05-10T18:13:49.491Z,14.26
2023-05-10T18:16:15.870Z,14.09
2023-05-10T18:18:42.184Z,14.05
2023-05-10T18:23:51.592Z,14.09
2023-05-10T18:26:18.000Z,14.06
2023-05-10T18:28:44.393Z,14.04
2023-05-10T18:31:10.774Z,13.99
2023-05-10T18:33:37.276Z,13.93
2023-05-10T18:36:03.713Z,13.87
2023-05-10T18:38:30.138Z,13.89
2023-05-10T18:40:56.452Z,13.83
2023-05-10T18:43:22.751Z,13.73
2023-05-10T18:45:49.046Z,13.72
2023-05-10T18:48:15.382Z,13.74
2023-05-10T18:50:41.655Z,13.57
2023-05-10T18:53:07.920Z,13.44
2023-05-10T18:55:34.218Z,13.38
2023-05-10T18:58:00.493Z,13.41
2023-05-10T19:00:26.742Z,13.40
2023-05-10T19:02:53.045Z,13.37
2023-05-10T19:05:19.549Z,13.35
2023-05-10T19:07:46.083Z,13.22
2023-05-10T19:10:12.356Z,13.18
2023-05-10T19:12:38.620Z,13.22
2023-05-10T19:15:04.872Z,13.22
2023-05-10T19:17:31.363Z,13.17
2023-05-10T19:19:57.697Z,13.13
2023-05-10T19:22:35.346Z,13.00
2023-05-10T19:25:03.174Z,12.91
2023-05-10T19:27:31.810Z,12.85
2023-05-10T19:29:58.368Z,12.90
2023-05-10T19:32:25.234Z,12.92
2023-05-10T19:34:52.222Z,12.94
2023-05-10T19:37:18.951Z,12.97
2023-05-10T19:39:45.318Z,12.95
2023-05-10T19:42:11.608Z,12.95
2023-05-10T19:44:37.888Z,12.95
2023-05-10T19:47:04.263Z,12.95
2023-05-10T19:49:30.624Z,12.92
2023-05-10T19:51:56.916Z,12.90
2023-05-10T19:54:23.165Z,12.88
2023-05-10T19:56:49.420Z,12.88
2023-05-10T19:59:15.698Z,12.86
2023-05-10T20:01:41.968Z,12.88
2023-05-10T20:04:08.325Z,12.85
2023-05-10T20:06:34.612Z,12.83
2023-05-10T20:09:00.883Z,12.81
2023-05-10T20:11:27.156Z,12.81
2023-05-10T20:13:53.430Z,12.79
2023-05-10T20:16:19.724Z,12.76
2023-05-10T20:18:46.030Z,12.74
2023-05-10T20:21:12.329Z,12.73
2023-05-10T20:23:38.586Z,12.62
2023-05-10T20:26:04.847Z,12.58
2023-05-10T20:28:31.121Z,12.63
2023-05-10T20:30:57.374Z,12.59
2023-05-10T20:33:23.665Z,12.59
2023-05-10T20:35:49.951Z,12.61
2023-05-10T20:38:16.286Z,12.65
2023-05-10T20:40:42.559Z,12.64
2023-05-10T20:43:08.839Z,12.64
2023-05-10T20:45:36.928Z,12.68
2023-05-10T20:48:03.814Z,12.64
2023-05-10T20:50:30.103Z,12.69
2023-05-10T20:52:56.382Z,12.65
2023-05-10T20:55:22.686Z,12.64
2023-05-10T20:57:48.947Z,12.66
2023-05-10T21:00:15.285Z,12.66
2023-05-10T21:02:41.734Z,12.63
2023-05-10T21:05:08.058Z,12.63
2023-05-10T21:07:34.416Z,12.61
2023-05-10T21:10:00.672Z,12.61
2023-05-10T21:12:26.966Z,12.61
2023-05-10T21:14:53.225Z,12.62
2023-05-10T21:17:20.229Z,12.56
2023-05-10T21:19:46.718Z,12.54
2023-05-10T21:22:13.019Z,12.53
2023-05-10T21:24:39.270Z,12.57
2023-05-10T21:27:05.558Z,12.57
2023-05-10T21:29:31.839Z,12.58
2023-05-10T21:31:58.138Z,12.58
2023-05-10T21:34:24.437Z,12.56
2023-05-10T21:36:50.677Z,12.58
2023-05-10T21:39:16.930Z,12.59
2023-05-10T21:41:43.173Z,12.59
2023-05-10T21:44:09.504Z,12.56
2023-05-10T21:46:35.780Z,12.58
2023-05-10T21:49:02.025Z,12.56
2023-05-10T21:51:28.282Z,12.55
2023-05-10T21:53:54.550Z,12.54
2023-05-10T21:56:20.820Z,12.52
2023-05-10T21:58:47.074Z,12.50
2023-05-10T22:01:13.360Z,12.50
2023-05-10T22:03:39.698Z,12.50
2023-05-10T22:06:05.981Z,12.49
2023-05-10T22:08:32.263Z,12.48
2023-05-10T22:10:58.525Z,12.46
2023-05-10T22:13:24.809Z,12.45
2023-05-10T22:15:51.068Z,12.47
2023-05-10T22:18:17.388Z,12.49
2023-05-10T22:20:43.657Z,12.49
2023-05-10T22:23:09.925Z,12.50
2023-05-10T22:25:37.272Z,12.49
2023-05-10T22:28:03.549Z,12.43
2023-05-10T22:30:31.026Z,12.37
2023-05-10T22:32:59.125Z,12.39
2023-05-10T22:35:25.455Z,12.34
2023-05-10T22:37:51.721Z,12.35
2023-05-10T22:40:18.173Z,12.35
2023-05-10T22:42:44.603Z,12.38
2023-05-10T22:45:10.837Z,12.37
2023-05-10T22:47:37.140Z,12.34
2023-05-10T22:50:03.454Z,12.35
2023-05-10T22:52:29.707Z,12.35
2023-05-10T22:54:55.954Z,12.34
2023-05-10T22:57:22.199Z,12.35
2023-05-10T22:59:48.497Z,12.34
2023-05-10T23:02:14.787Z,12.33
2023-05-10T23:04:41.075Z,12.35
2023-05-10T23:07:07.366Z,12.36
2023-05-10T23:09:33.616Z,12.34
2023-05-10T23:11:59.894Z,12.32
2023-05-10T23:14:26.173Z,12.33
2023-05-10T23:16:52.417Z,12.32
2023-05-10T23:19:18.732Z,12.32
2023-05-10T23:21:45.054Z,12.30
2023-05-10T23:24:13.303Z,12.31
2023-05-10T23:26:39.568Z,12.24
2023-05-10T23:29:05.841Z,12.28
2023-05-10T23:31:32.125Z,12.26
2023-05-10T23:33:58.428Z,12.24
2023-05-10T23:36:24.747Z,12.23
2023-05-10T23:38:51.004Z,12.22
2023-05-10T23:41:17.270Z,12.19
2023-05-10T23:43:43.518Z,12.20
2023-05-10T23:46:09.838Z,12.21
2023-05-10T23:48:36.097Z,12.20
2023-05-10T23:51:02.340Z,12.22
2023-05-10T23:53:28.596Z,12.23
2023-05-10T23:55:54.878Z,12.23
2023-05-10T23:58:21.183Z,12.21
